sensor_id;sensor_type;location;lat;lon;timestamp;pressure;altitude;pressure_sealevel;temperature;humidity
21640;BME280;10981;45.462;10.974;2023-10-31T00:01:06;99216.78;;;15.99;100.00
21640;BME280;10981;45.462;10.974;2023-10-31T00:03:35;99214.34;;;15.98;100.00
21640;BME280;10981;45.462;10.974;2023-10-31T00:06:03;99212.28;;;15.93;100.00
21640;BME280;10981;45.462;10.974;2023-10-31T00:08:31;99227.50;;;15.91;100.00
21640;BME280;10981;45.462;10.974;2023-10-31T00:11:03;99232.34;;;15.88;100.00
21640;BME280;10981;45.462;10.974;2023-10-31T00:13:31;99229.47;;;15.82;100.00
21640;BME280;10981;45.462;10.974;2023-10-31T00:15:59;99231.44;;;15.80;100.00
21640;BME280;10981;45.462;10.974;2023-10-31T00:18:28;99226.38;;;15.79;100.00
21640;BME280;10981;45.462;10.974;2023-10-31T00:20:56;99213.75;;;15.74;100.00
21640;BME280;10981;45.462;10.974;2023-10-31T00:23:25;99211.72;;;15.69;100.00
21640;BME280;10981;45.462;10.974;2023-10-31T00:25:53;99206.00;;;15.66;100.00
21640;BME280;10981;45.462;10.974;2023-10-31T00:28:21;99207.22;;;15.63;100.00
21640;BME280;10981;45.462;10.974;2023-10-31T00:30:50;99202.72;;;15.57;100.00
21640;BME280;10981;45.462;10.974;2023-10-31T00:33:18;99195.19;;;15.54;100.00
21640;BME280;10981;45.462;10.974;2023-10-31T00:35:49;99198.00;;;15.52;100.00
21640;BME280;10981;45.462;10.974;2023-10-31T00:38:17;99200.41;;;15.47;100.00
21640;BME280;10981;45.462;10.974;2023-10-31T00:40:48;99197.72;;;15.41;100.00
21640;BME280;10981;45.462;10.974;2023-10-31T00:43:16;99204.19;;;15.38;100.00
21640;BME280;10981;45.462;10.974;2023-10-31T00:45:47;99204.34;;;15.30;100.00
21640;BME280;10981;45.462;10.974;2023-10-31T00:48:15;99193.53;;;15.25;100.00
21640;BME280;10981;45.462;10.974;2023-10-31T00:50:44;99188.03;;;15.19;100.00
21640;BME280;10981;45.462;10.974;2023-10-31T00:53:12;99192.25;;;15.14;100.00
21640;BME280;10981;45.462;10.974;2023-10-31T00:55:44;99194.84;;;15.07;100.00
21640;BME280;10981;45.462;10.974;2023-10-31T00:58:13;99201.31;;;15.04;100.00
21640;BME280;10981;45.462;10.974;2023-10-31T01:00:42;99216.47;;;15.02;100.00
21640;BME280;10981;45.462;10.974;2023-10-31T01:03:10;99212.78;;;14.97;100.00
21640;BME280;10981;45.462;10.974;2023-10-31T01:05:38;99211.16;;;14.96;100.00
21640;BME280;10981;45.462;10.974;2023-10-31T01:08:06;99213.16;;;14.94;100.00
21640;BME280;10981;45.462;10.974;2023-10-31T01:10:35;99206.44;;;14.91;100.00
21640;BME280;10981;45.462;10.974;2023-10-31T01:13:03;99205.00;;;14.88;100.00
21640;BME280;10981;45.462;10.974;2023-10-31T01:15:31;99199.28;;;14.85;100.00
21640;BME280;10981;45.462;10.974;2023-10-31T01:17:59;99192.97;;;14.79;100.00
21640;BME280;10981;45.462;10.974;2023-10-31T01:20:28;99184.81;;;14.74;100.00
21640;BME280;10981;45.462;10.974;2023-10-31T01:22:56;99178.66;;;14.67;100.00
21640;BME280;10981;45.462;10.974;2023-10-31T01:25:24;99184.28;;;14.64;100.00
21640;BME280;10981;45.462;10.974;2023-10-31T01:27:52;99183.84;;;14.60;100.00
21640;BME280;10981;45.462;10.974;2023-10-31T01:30:21;99195.56;;;14.58;100.00
21640;BME280;10981;45.462;10.974;2023-10-31T01:32:49;99183.84;;;14.60;100.00
21640;BME280;10981;45.462;10.974;2023-10-31T01:35:18;99191.28;;;14.57;100.00
21640;BME280;10981;45.462;10.974;2023-10-31T01:37:48;99193.13;;;14.56;100.00
21640;BME280;10981;45.462;10.974;2023-10-31T01:40:17;99199.91;;;14.50;100.00
21640;BME280;10981;45.462;10.974;2023-10-31T01:42:45;99203.09;;;14.46;100.00
21640;BME280;10981;45.462;10.974;2023-10-31T01:45:13;99202.84;;;14.41;100.00
21640;BME280;10981;45.462;10.974;2023-10-31T01:47:43;99204.03;;;14.38;100.00
21640;BME280;10981;45.462;10.974;2023-10-31T01:50:14;99205.84;;;14.37;100.00
21640;BME280;10981;45.462;10.974;2023-10-31T01:52:42;99190.88;;;14.38;100.00
21640;BME280;10981;45.462;10.974;2023-10-31T01:55:11;99187.88;;;14.41;100.00
21640;BME280;10981;45.462;10.974;2023-10-31T01:57:40;99197.78;;;14.39;100.00
21640;BME280;10981;45.462;10.974;2023-10-31T02:00:08;99188.44;;;14.36;100.00
21640;BME280;10981;45.462;10.974;2023-10-31T02:02:41;99177.19;;;14.28;100.00
21640;BME280;10981;45.462;10.974;2023-10-31T02:05:15;99165.63;;;14.22;100.00
21640;BME280;10981;45.462;10.974;2023-10-31T02:07:45;99157.91;;;14.20;100.00
21640;BME280;10981;45.462;10.974;2023-10-31T02:10:14;99141.50;;;14.18;100.00
21640;BME280;10981;45.462;10.974;2023-10-31T02:12:42;99149.13;;;14.13;100.00
21640;BME280;10981;45.462;10.974;2023-10-31T02:15:11;99146.69;;;14.12;100.00
21640;BME280;10981;45.462;10.974;2023-10-31T02:17:39;99139.34;;;14.07;100.00
21640;BME280;10981;45.462;10.974;2023-10-31T02:20:08;99153.59;;;14.13;100.00
21640;BME280;10981;45.462;10.974;2023-10-31T02:22:36;99155.38;;;14.12;100.00
21640;BME280;10981;45.462;10.974;2023-10-31T02:25:16;99151.75;;;14.13;100.00
21640;BME280;10981;45.462;10.974;2023-10-31T02:27:46;99131.53;;;14.14;100.00
21640;BME280;10981;45.462;10.974;2023-10-31T02:30:14;99134.16;;;14.14;100.00
21640;BME280;10981;45.462;10.974;2023-10-31T02:32:42;99136.97;;;14.12;100.00
21640;BME280;10981;45.462;10.974;2023-10-31T02:35:11;99146.13;;;14.16;100.00
21640;BME280;10981;45.462;10.974;2023-10-31T02:37:42;99145.31;;;14.16;100.00
21640;BME280;10981;45.462;10.974;2023-10-31T02:40:15;99131.53;;;14.14;100.00
21640;BME280;10981;45.462;10.974;2023-10-31T02:42:43;99130.06;;;14.11;100.00
21640;BME280;10981;45.462;10.974;2023-10-31T02:45:12;99128.72;;;14.15;100.00
21640;BME280;10981;45.462;10.974;2023-10-31T02:47:40;99134.97;;;14.14;100.00
21640;BME280;10981;45.462;10.974;2023-10-31T02:50:08;99134.78;;;14.16;100.00
21640;BME280;10981;45.462;10.974;2023-10-31T02:52:37;99139.84;;;14.17;100.00
21640;BME280;10981;45.462;10.974;2023-10-31T02:55:05;99136.03;;;14.20;100.00
21640;BME280;10981;45.462;10.974;2023-10-31T02:57:34;99127.34;;;14.19;100.00
21640;BME280;10981;45.462;10.974;2023-10-31T03:00:02;99122.88;;;14.20;100.00
21640;BME280;10981;45.462;10.974;2023-10-31T03:02:30;99130.59;;;14.21;100.00
21640;BME280;10981;45.462;10.974;2023-10-31T03:04:59;99120.72;;;14.23;100.00
21640;BME280;10981;45.462;10.974;2023-10-31T03:07:27;99105.72;;;14.24;100.00
21640;BME280;10981;45.462;10.974;2023-10-31T03:09:55;99097.22;;;14.22;100.00
21640;BME280;10981;45.462;10.974;2023-10-31T03:12:23;99102.94;;;14.26;100.00
21640;BME280;10981;45.462;10.974;2023-10-31T03:14:52;99100.91;;;14.28;100.00
21640;BME280;10981;45.462;10.974;2023-10-31T03:17:23;99076.50;;;14.34;100.00
21640;BME280;10981;45.462;10.974;2023-10-31T03:19:53;99061.34;;;14.36;100.00
21640;BME280;10981;45.462;10.974;2023-10-31T03:22:22;99074.69;;;14.34;100.00
21640;BME280;10981;45.462;10.974;2023-10-31T03:24:50;99088.22;;;14.31;100.00
21640;BME280;10981;45.462;10.974;2023-10-31T03:27:18;99093.72;;;14.36;100.00
21640;BME280;10981;45.462;10.974;2023-10-31T03:29:46;99087.91;;;14.41;100.00
21640;BME280;10981;45.462;10.974;2023-10-31T03:32:15;99084.63;;;14.39;100.00
21640;BME280;10981;45.462;10.974;2023-10-31T03:34:43;99076.38;;;14.42;100.00
21640;BME280;10981;45.462;10.974;2023-10-31T03:37:11;99074.38;;;14.44;100.00
21640;BME280;10981;45.462;10.974;2023-10-31T03:39:40;99070.75;;;14.45;100.00
21640;BME280;10981;45.462;10.974;2023-10-31T03:42:08;99072.56;;;14.45;100.00
21640;BME280;10981;45.462;10.974;2023-10-31T03:44:36;99080.47;;;14.45;100.00
21640;BME280;10981;45.462;10.974;2023-10-31T03:47:04;99064.84;;;14.43;100.00
21640;BME280;10981;45.462;10.974;2023-10-31T03:49:33;99034.47;;;14.41;100.00
21640;BME280;10981;45.462;10.974;2023-10-31T03:52:01;99039.38;;;14.44;100.00
21640;BME280;10981;45.462;10.974;2023-10-31T03:54:29;99041.16;;;14.43;100.00
21640;BME280;10981;45.462;10.974;2023-10-31T03:56:57;99047.06;;;14.45;100.00
21640;BME280;10981;45.462;10.974;2023-10-31T03:59:25;99058.22;;;14.47;100.00
21640;BME280;10981;45.462;10.974;2023-10-31T04:01:53;99056.03;;;14.51;100.00
21640;BME280;10981;45.462;10.974;2023-10-31T04:04:22;99063.34;;;14.55;100.00
21640;BME280;10981;45.462;10.974;2023-10-31T04:06:52;99045.91;;;14.54;100.00
21640;BME280;10981;45.462;10.974;2023-10-31T04:09:20;99044.47;;;14.52;100.00
21640;BME280;10981;45.462;10.974;2023-10-31T04:11:48;99040.84;;;14.53;100.00
21640;BME280;10981;45.462;10.974;2023-10-31T04:14:16;99021.03;;;14.57;100.00
21640;BME280;10981;45.462;10.974;2023-10-31T04:16:44;99012.13;;;14.58;100.00
21640;BME280;10981;45.462;10.974;2023-10-31T04:19:14;99026.72;;;14.61;100.00
21640;BME280;10981;45.462;10.974;2023-10-31T04:21:42;99030.81;;;14.63;100.00
21640;BME280;10981;45.462;10.974;2023-10-31T04:24:13;99025.38;;;14.65;100.00
21640;BME280;10981;45.462;10.974;2023-10-31T04:26:41;99032.72;;;14.69;100.00
21640;BME280;10981;45.462;10.974;2023-10-31T04:29:09;99021.19;;;14.70;100.00
21640;BME280;10981;45.462;10.974;2023-10-31T04:31:38;99015.94;;;14.77;100.00
21640;BME280;10981;45.462;10.974;2023-10-31T04:34:11;99029.16;;;14.84;100.00
21640;BME280;10981;45.462;10.974;2023-10-31T04:36:40;99018.69;;;14.91;100.00
21640;BME280;10981;45.462;10.974;2023-10-31T04:39:08;99004.75;;;14.97;100.00
21640;BME280;10981;45.462;10.974;2023-10-31T04:41:37;99011.06;;;15.02;100.00
21640;BME280;10981;45.462;10.974;2023-10-31T04:44:06;99010.91;;;15.11;100.00
21640;BME280;10981;45.462;10.974;2023-10-31T04:46:34;99009.09;;;15.18;100.00
21640;BME280;10981;45.462;10.974;2023-10-31T04:49:02;99015.22;;;15.25;100.00
21640;BME280;10981;45.462;10.974;2023-10-31T04:51:35;99009.38;;;15.30;100.00
21640;BME280;10981;45.462;10.974;2023-10-31T04:54:04;99001.88;;;15.33;100.00
21640;BME280;10981;45.462;10.974;2023-10-31T04:56:33;99001.94;;;15.40;100.00
21640;BME280;10981;45.462;10.974;2023-10-31T04:59:02;98999.31;;;15.47;100.00
21640;BME280;10981;45.462;10.974;2023-10-31T05:01:30;99001.97;;;15.53;100.00
21640;BME280;10981;45.462;10.974;2023-10-31T05:03:58;99002.59;;;15.56;100.00
21640;BME280;10981;45.462;10.974;2023-10-31T05:06:39;98998.13;;;15.56;100.00
21640;BME280;10981;45.462;10.974;2023-10-31T05:09:08;99004.03;;;15.58;100.00
21640;BME280;10981;45.462;10.974;2023-10-31T05:11:39;98993.28;;;15.60;100.00
21640;BME280;10981;45.462;10.974;2023-10-31T05:14:09;98992.88;;;15.63;100.00
21640;BME280;10981;45.462;10.974;2023-10-31T05:16:43;98998.56;;;15.66;100.00
21640;BME280;10981;45.462;10.974;2023-10-31T05:19:11;99003.03;;;15.66;100.00
21640;BME280;10981;45.462;10.974;2023-10-31T05:21:39;98999.75;;;15.64;100.00
21640;BME280;10981;45.462;10.974;2023-10-31T05:24:08;98997.75;;;15.59;100.00
21640;BME280;10981;45.462;10.974;2023-10-31T05:26:40;98994.47;;;15.57;100.00
21640;BME280;10981;45.462;10.974;2023-10-31T05:29:10;98981.09;;;15.52;100.00
21640;BME280;10981;45.462;10.974;2023-10-31T05:31:38;98986.75;;;15.49;100.00
21640;BME280;10981;45.462;10.974;2023-10-31T05:34:07;98989.56;;;15.47;100.00
21640;BME280;10981;45.462;10.974;2023-10-31T05:36:35;98997.88;;;15.44;100.00
21640;BME280;10981;45.462;10.974;2023-10-31T05:39:03;98998.88;;;15.43;100.00
21640;BME280;10981;45.462;10.974;2023-10-31T05:41:34;98990.34;;;15.41;100.00
21640;BME280;10981;45.462;10.974;2023-10-31T05:44:02;98993.81;;;15.42;100.00
21640;BME280;10981;45.462;10.974;2023-10-31T05:46:31;99006.16;;;15.41;100.00
21640;BME280;10981;45.462;10.974;2023-10-31T05:49:01;99014.91;;;15.42;100.00
21640;BME280;10981;45.462;10.974;2023-10-31T05:51:29;98999.06;;;15.35;100.00
21640;BME280;10981;45.462;10.974;2023-10-31T05:53:58;99000.06;;;15.34;100.00
21640;BME280;10981;45.462;10.974;2023-10-31T05:56:27;99000.28;;;15.32;100.00
21640;BME280;10981;45.462;10.974;2023-10-31T05:58:55;99009.00;;;15.33;100.00
21640;BME280;10981;45.462;10.974;2023-10-31T06:01:23;99019.72;;;15.31;100.00
21640;BME280;10981;45.462;10.974;2023-10-31T06:03:51;99027.41;;;15.26;100.00
21640;BME280;10981;45.462;10.974;2023-10-31T06:06:19;99034.03;;;15.22;100.00
21640;BME280;10981;45.462;10.974;2023-10-31T06:08:48;99035.06;;;15.21;100.00
21640;BME280;10981;45.462;10.974;2023-10-31T06:11:16;99035.69;;;15.23;100.00
21640;BME280;10981;45.462;10.974;2023-10-31T06:13:45;99054.75;;;15.25;100.00
21640;BME280;10981;45.462;10.974;2023-10-31T06:16:15;99075.84;;;15.32;100.00
21640;BME280;10981;45.462;10.974;2023-10-31T06:18:44;99092.09;;;15.35;100.00
21640;BME280;10981;45.462;10.974;2023-10-31T06:21:12;99097.38;;;15.35;100.00
21640;BME280;10981;45.462;10.974;2023-10-31T06:23:41;99127.78;;;15.38;100.00
21640;BME280;10981;45.462;10.974;2023-10-31T06:26:10;99126.53;;;15.34;100.00
21640;BME280;10981;45.462;10.974;2023-10-31T06:28:38;99156.09;;;15.29;100.00
21640;BME280;10981;45.462;10.974;2023-10-31T06:31:19;99162.00;;;15.31;100.00
21640;BME280;10981;45.462;10.974;2023-10-31T06:33:48;99154.28;;;15.30;100.00
21640;BME280;10981;45.462;10.974;2023-10-31T06:36:16;99170.00;;;15.16;100.00
21640;BME280;10981;45.462;10.974;2023-10-31T06:38:44;99165.78;;;15.00;100.00
21640;BME280;10981;45.462;10.974;2023-10-31T06:41:13;99152.59;;;14.94;100.00
21640;BME280;10981;45.462;10.974;2023-10-31T06:43:41;99139.06;;;14.75;100.00
21640;BME280;10981;45.462;10.974;2023-10-31T06:46:09;99131.47;;;14.65;100.00
21640;BME280;10981;45.462;10.974;2023-10-31T06:48:37;99134.13;;;14.65;100.00
21640;BME280;10981;45.462;10.974;2023-10-31T06:51:06;99136.28;;;14.62;100.00
21640;BME280;10981;45.462;10.974;2023-10-31T06:53:34;99147.00;;;14.60;100.00
21640;BME280;10981;45.462;10.974;2023-10-31T06:56:02;99146.56;;;14.57;100.00
21640;BME280;10981;45.462;10.974;2023-10-31T06:58:30;99153.19;;;14.52;100.00
21640;BME280;10981;45.462;10.974;2023-10-31T07:00:59;99156.38;;;14.48;100.00
21640;BME280;10981;45.462;10.974;2023-10-31T07:03:30;99152.94;;;14.47;100.00
21640;BME280;10981;45.462;10.974;2023-10-31T07:05:58;99161.84;;;14.46;100.00
21640;BME280;10981;45.462;10.974;2023-10-31T07:08:27;99177.44;;;14.48;100.00
21640;BME280;10981;45.462;10.974;2023-10-31T07:10:55;99181.94;;;14.54;100.00
21640;BME280;10981;45.462;10.974;2023-10-31T07:13:24;99180.22;;;14.61;100.00
21640;BME280;10981;45.462;10.974;2023-10-31T07:15:52;99181.44;;;14.80;100.00
21640;BME280;10981;45.462;10.974;2023-10-31T07:18:21;99187.66;;;14.94;100.00
21640;BME280;10981;45.462;10.974;2023-10-31T07:20:49;99186.88;;;15.00;100.00
21640;BME280;10981;45.462;10.974;2023-10-31T07:23:17;99181.03;;;15.05;100.00
21640;BME280;10981;45.462;10.974;2023-10-31T07:25:45;99177.34;;;15.21;100.00
21640;BME280;10981;45.462;10.974;2023-10-31T07:28:14;99173.09;;;15.27;100.00
21640;BME280;10981;45.462;10.974;2023-10-31T07:30:42;99177.38;;;15.28;100.00
21640;BME280;10981;45.462;10.974;2023-10-31T07:33:10;99172.31;;;15.26;100.00
21640;BME280;10981;45.462;10.974;2023-10-31T07:35:38;99163.75;;;15.24;100.00
21640;BME280;10981;45.462;10.974;2023-10-31T07:38:06;99152.19;;;15.18;100.00
21640;BME280;10981;45.462;10.974;2023-10-31T07:40:36;99149.19;;;15.28;100.00
21640;BME280;10981;45.462;10.974;2023-10-31T07:43:04;99131.06;;;15.40;100.00
21640;BME280;10981;45.462;10.974;2023-10-31T07:45:32;99127.47;;;15.55;100.00
21640;BME280;10981;45.462;10.974;2023-10-31T07:48:00;99141.09;;;15.58;100.00
21640;BME280;10981;45.462;10.974;2023-10-31T07:50:29;99130.75;;;15.57;100.00
21640;BME280;10981;45.462;10.974;2023-10-31T07:52:58;99141.84;;;15.52;100.00
21640;BME280;10981;45.462;10.974;2023-10-31T07:55:27;99149.91;;;15.44;100.00
21640;BME280;10981;45.462;10.974;2023-10-31T07:57:58;99172.00;;;15.43;100.00
21640;BME280;10981;45.462;10.974;2023-10-31T08:00:27;99177.59;;;15.04;100.00
21640;BME280;10981;45.462;10.974;2023-10-31T08:02:55;99175.28;;;14.95;100.00
21640;BME280;10981;45.462;10.974;2023-10-31T08:05:24;99174.84;;;14.69;100.00
21640;BME280;10981;45.462;10.974;2023-10-31T08:07:52;99172.75;;;14.65;100.00
21640;BME280;10981;45.462;10.974;2023-10-31T08:10:20;99170.44;;;14.55;100.00
21640;BME280;10981;45.462;10.974;2023-10-31T08:12:48;99169.81;;;14.38;100.00
21640;BME280;10981;45.462;10.974;2023-10-31T08:15:17;99179.94;;;14.34;100.00
21640;BME280;10981;45.462;10.974;2023-10-31T08:17:45;99193.69;;;14.36;100.00
21640;BME280;10981;45.462;10.974;2023-10-31T08:20:13;99191.81;;;14.30;100.00
21640;BME280;10981;45.462;10.974;2023-10-31T08:22:46;99195.00;;;14.26;100.00
21640;BME280;10981;45.462;10.974;2023-10-31T08:25:15;99189.22;;;14.15;100.00
21640;BME280;10981;45.462;10.974;2023-10-31T08:27:43;99184.69;;;14.09;100.00
21640;BME280;10981;45.462;10.974;2023-10-31T08:30:12;99178.06;;;14.13;100.00
21640;BME280;10981;45.462;10.974;2023-10-31T08:32:40;99177.06;;;14.14;100.00
21640;BME280;10981;45.462;10.974;2023-10-31T08:35:08;99171.88;;;14.21;100.00
21640;BME280;10981;45.462;10.974;2023-10-31T08:37:37;99168.06;;;14.23;100.00
21640;BME280;10981;45.462;10.974;2023-10-31T08:40:06;99150.63;;;14.22;100.00
21640;BME280;10981;45.462;10.974;2023-10-31T08:42:34;99173.03;;;14.33;100.00
21640;BME280;10981;45.462;10.974;2023-10-31T08:45:05;99177.72;;;14.38;100.00
21640;BME280;10981;45.462;10.974;2023-10-31T08:47:34;99186.31;;;14.47;100.00
21640;BME280;10981;45.462;10.974;2023-10-31T08:50:02;99192.31;;;14.41;100.00
21640;BME280;10981;45.462;10.974;2023-10-31T08:52:30;99199.34;;;14.33;100.00
21640;BME280;10981;45.462;10.974;2023-10-31T08:54:58;99191.53;;;14.25;100.00
21640;BME280;10981;45.462;10.974;2023-10-31T08:57:26;99185.94;;;14.13;100.00
21640;BME280;10981;45.462;10.974;2023-10-31T08:59:55;99189.38;;;14.14;100.00
21640;BME280;10981;45.462;10.974;2023-10-31T09:02:24;99188.50;;;14.06;100.00
21640;BME280;10981;45.462;10.974;2023-10-31T09:04:52;99192.03;;;13.99;100.00
21640;BME280;10981;45.462;10.974;2023-10-31T09:07:21;99193.38;;;13.95;100.00
21640;BME280;10981;45.462;10.974;2023-10-31T09:09:49;99196.66;;;13.97;100.00
21640;BME280;10981;45.462;10.974;2023-10-31T09:12:17;99191.59;;;13.95;100.00
21640;BME280;10981;45.462;10.974;2023-10-31T09:14:45;99191.78;;;13.94;100.00
21640;BME280;10981;45.462;10.974;2023-10-31T09:17:14;99189.22;;;14.00;100.00
21640;BME280;10981;45.462;10.974;2023-10-31T09:19:42;99197.72;;;14.02;100.00
21640;BME280;10981;45.462;10.974;2023-10-31T09:22:10;99194.47;;;14.00;100.00
21640;BME280;10981;45.462;10.974;2023-10-31T09:24:39;99189.84;;;14.02;100.00
21640;BME280;10981;45.462;10.974;2023-10-31T09:27:11;99190.88;;;14.01;100.00
21640;BME280;10981;45.462;10.974;2023-10-31T09:29:40;99200.66;;;13.93;100.00
21640;BME280;10981;45.462;10.974;2023-10-31T09:32:08;99198.38;;;13.89;100.00
21640;BME280;10981;45.462;10.974;2023-10-31T09:34:36;99201.19;;;13.88;100.00
21640;BME280;10981;45.462;10.974;2023-10-31T09:37:04;99202.44;;;13.92;100.00
21640;BME280;10981;45.462;10.974;2023-10-31T09:39:33;99210.59;;;13.97;100.00
21640;BME280;10981;45.462;10.974;2023-10-31T09:42:01;99211.44;;;13.98;100.00
21640;BME280;10981;45.462;10.974;2023-10-31T09:44:29;99212.69;;;13.87;100.00
21640;BME280;10981;45.462;10.974;2023-10-31T09:46:58;99216.97;;;13.88;100.00
21640;BME280;10981;45.462;10.974;2023-10-31T09:49:27;99226.69;;;13.87;100.00
21640;BME280;10981;45.462;10.974;2023-10-31T09:51:56;99226.56;;;13.81;100.00
21640;BME280;10981;45.462;10.974;2023-10-31T09:54:26;99232.66;;;13.81;100.00
21640;BME280;10981;45.462;10.974;2023-10-31T09:56:54;99235.09;;;13.83;100.00
21640;BME280;10981;45.462;10.974;2023-10-31T09:59:23;99236.47;;;13.79;100.00
21640;BME280;10981;45.462;10.974;2023-10-31T10:01:51;99243.16;;;13.81;100.00
21640;BME280;10981;45.462;10.974;2023-10-31T10:04:19;99251.78;;;13.90;100.00
21640;BME280;10981;45.462;10.974;2023-10-31T10:07:02;99260.13;;;13.94;100.00
21640;BME280;10981;45.462;10.974;2023-10-31T10:09:31;99270.66;;;13.94;100.00
21640;BME280;10981;45.462;10.974;2023-10-31T10:12:02;99279.09;;;14.04;100.00
21640;BME280;10981;45.462;10.974;2023-10-31T10:14:30;99293.41;;;14.01;100.00
21640;BME280;10981;45.462;10.974;2023-10-31T10:17:00;99294.75;;;13.97;100.00
21640;BME280;10981;45.462;10.974;2023-10-31T10:19:28;99311.34;;;13.98;100.00
21640;BME280;10981;45.462;10.974;2023-10-31T10:21:58;99312.53;;;13.95;100.00
21640;BME280;10981;45.462;10.974;2023-10-31T10:24:29;99318.13;;;13.92;100.00
21640;BME280;10981;45.462;10.974;2023-10-31T10:27:00;99327.03;;;13.91;100.00
21640;BME280;10981;45.462;10.974;2023-10-31T10:29:32;99338.97;;;13.79;100.00
21640;BME280;10981;45.462;10.974;2023-10-31T10:32:00;99343.00;;;13.66;100.00
21640;BME280;10981;45.462;10.974;2023-10-31T10:34:28;99334.03;;;13.61;100.00
21640;BME280;10981;45.462;10.974;2023-10-31T10:36:58;99339.38;;;13.67;100.00
21640;BME280;10981;45.462;10.974;2023-10-31T10:39:27;99337.16;;;13.79;100.00
21640;BME280;10981;45.462;10.974;2023-10-31T10:41:59;99333.91;;;13.92;100.00
21640;BME280;10981;45.462;10.974;2023-10-31T10:44:32;99339.63;;;13.96;100.00
21640;BME280;10981;45.462;10.974;2023-10-31T10:47:05;99342.19;;;14.04;100.00
21640;BME280;10981;45.462;10.974;2023-10-31T10:49:36;99353.88;;;14.01;100.00
21640;BME280;10981;45.462;10.974;2023-10-31T10:52:32;99361.78;;;14.01;100.00
21640;BME280;10981;45.462;10.974;2023-10-31T10:55:08;99384.41;;;14.02;100.00
21640;BME280;10981;45.462;10.974;2023-10-31T11:00:26;99418.22;;;13.90;100.00
21640;BME280;10981;45.462;10.974;2023-10-31T11:02:56;99428.63;;;13.84;100.00
21640;BME280;10981;45.462;10.974;2023-10-31T11:05:26;99446.84;;;13.85;100.00
21640;BME280;10981;45.462;10.974;2023-10-31T11:07:56;99461.91;;;13.68;100.00
21640;BME280;10981;45.462;10.974;2023-10-31T11:10:28;99475.63;;;13.55;100.00
21640;BME280;10981;45.462;10.974;2023-10-31T11:12:57;99497.84;;;13.45;100.00
21640;BME280;10981;45.462;10.974;2023-10-31T11:15:28;99508.69;;;13.33;100.00
21640;BME280;10981;45.462;10.974;2023-10-31T11:17:57;99511.50;;;13.23;100.00
21640;BME280;10981;45.462;10.974;2023-10-31T11:20:27;99516.31;;;13.20;100.00
21640;BME280;10981;45.462;10.974;2023-10-31T11:22:57;99517.66;;;13.07;100.00
21640;BME280;10981;45.462;10.974;2023-10-31T11:25:32;99526.25;;;12.93;100.00
21640;BME280;10981;45.462;10.974;2023-10-31T11:28:16;99544.44;;;12.86;100.00
21640;BME280;10981;45.462;10.974;2023-10-31T11:30:49;99548.88;;;12.78;100.00
21640;BME280;10981;45.462;10.974;2023-10-31T11:33:21;99559.22;;;12.71;100.00
21640;BME280;10981;45.462;10.974;2023-10-31T11:35:50;99562.19;;;12.68;100.00
21640;BME280;10981;45.462;10.974;2023-10-31T11:38:31;99562.19;;;12.59;100.00
21640;BME280;10981;45.462;10.974;2023-10-31T11:41:03;99566.78;;;12.57;100.00
21640;BME280;10981;45.462;10.974;2023-10-31T11:46:27;99582.66;;;12.56;100.00
21640;BME280;10981;45.462;10.974;2023-10-31T11:48:57;99583.50;;;12.56;100.00
21640;BME280;10981;45.462;10.974;2023-10-31T11:51:26;99579.56;;;12.61;100.00
21640;BME280;10981;45.462;10.974;2023-10-31T11:53:54;99562.19;;;12.59;100.00
21640;BME280;10981;45.462;10.974;2023-10-31T11:56:24;99580.56;;;12.68;100.00
21640;BME280;10981;45.462;10.974;2023-10-31T11:59:01;99605.00;;;12.77;100.00
21640;BME280;10981;45.462;10.974;2023-10-31T12:01:30;99563.63;;;12.95;100.00
21640;BME280;10981;45.462;10.974;2023-10-31T12:03:58;99526.19;;;13.01;100.00
21640;BME280;10981;45.462;10.974;2023-10-31T12:06:28;99517.03;;;12.97;100.00
21640;BME280;10981;45.462;10.974;2023-10-31T12:09:00;99529.66;;;12.94;100.00
21640;BME280;10981;45.462;10.974;2023-10-31T12:11:29;99531.59;;;13.08;100.00
21640;BME280;10981;45.462;10.974;2023-10-31T12:14:02;99537.28;;;13.28;100.00
21640;BME280;10981;45.462;10.974;2023-10-31T12:16:34;99551.66;;;13.57;100.00
21640;BME280;10981;45.462;10.974;2023-10-31T12:19:04;99556.47;;;13.85;100.00
21640;BME280;10981;45.462;10.974;2023-10-31T12:21:43;99567.06;;;14.23;100.00
21640;BME280;10981;45.462;10.974;2023-10-31T12:24:13;99565.72;;;14.50;100.00
21640;BME280;10981;45.462;10.974;2023-10-31T12:26:42;99563.47;;;14.85;100.00
21640;BME280;10981;45.462;10.974;2023-10-31T12:32:03;99560.94;;;15.37;100.00
21640;BME280;10981;45.462;10.974;2023-10-31T12:34:31;99567.47;;;15.56;100.00
21640;BME280;10981;45.462;10.974;2023-10-31T12:37:02;99569.63;;;15.67;100.00
21640;BME280;10981;45.462;10.974;2023-10-31T12:39:31;99571.09;;;15.70;100.00
21640;BME280;10981;45.462;10.974;2023-10-31T12:42:00;99571.34;;;15.90;100.00
21640;BME280;10981;45.462;10.974;2023-10-31T12:44:29;99572.88;;;15.99;100.00
21640;BME280;10981;45.462;10.974;2023-10-31T12:46:58;99571.25;;;16.20;100.00
21640;BME280;10981;45.462;10.974;2023-10-31T12:49:27;99574.97;;;16.47;100.00
21640;BME280;10981;45.462;10.974;2023-10-31T12:52:04;99581.00;;;16.63;100.00
21640;BME280;10981;45.462;10.974;2023-10-31T12:54:37;99581.78;;;16.85;100.00
21640;BME280;10981;45.462;10.974;2023-10-31T12:57:07;99587.66;;;17.09;100.00
21640;BME280;10981;45.462;10.974;2023-10-31T12:59:37;99577.28;;;17.07;100.00